Time;durP1;ratioP1;P1;durP2;ratioP2;P2;SDS_P1;SDS_P2;PMS_P1;PMS_P2;Temp;Humidity;BMP_temperature;BMP_pressure;BME280_temperature;BME280_humidity;BME280_pressure;Samples;Min_cycle;Max_cycle;Signal;HPM_P1;HPM_P2
2021/04/12 00:03:01;;;;;;;;;;;;;;;8.88;44.63;101418.75;1750614;82;20288;-60
2021/04/12 00:06:13;;;;;;;;;;;;;;;8.92;44.67;101407.93;1750443;82;20244;-61
2021/04/12 00:09:27;;;;;;;;;;;;;;;8.95;44.52;101404.42;1750612;80;20317;-61
2021/04/12 00:12:46;;;;;;;;;;;;;;;8.95;44.46;101404.91;1766232;80;20214;-60
2021/04/12 00:16:00;;;;;;;;;;;;;;;8.96;44.62;101395.22;1775607;79;20216;-61
2021/04/12 00:19:09;;;;;;;;;;;;;;;9.02;44.61;101399.27;1769052;81;20196;-60
2021/04/12 00:22:21;;;;;;;;;;;;;;;9.05;44.48;101393.52;1773573;81;20559;-60
2021/04/12 00:25:41;;;;;;;;;;;;;;;9.03;44.50;101391.42;1772967;81;20554;-59
2021/04/12 00:28:58;;;;;;;;;;;;;;;9.02;44.63;101382.35;1773494;81;20243;-59
2021/04/12 00:32:08;;;;;;;;;;;;;;;8.97;44.73;101377.81;1773513;81;20208;-61
2021/04/12 00:35:31;;;;;;;;;;;;;;;8.92;44.69;101373.30;1773542;81;20199;-60
2021/04/12 00:38:51;;;;;;;;;;;;;;;8.93;44.80;101369.56;1773792;81;20203;-60
2021/04/12 00:42:18;;;;;;;;;;;;;;;8.94;44.90;101362.23;1760714;80;20243;-61
2021/04/12 00:45:59;;;;;;;;;;;;;;;8.91;45.10;101366.62;1773919;81;20204;-60
2021/04/12 00:49:25;;;;;;;;;;;;;;;8.92;45.30;101357.41;1774016;81;20200;-59
2021/04/12 00:52:58;;;;;;;;;;;;;;;8.91;45.47;101355.70;1773930;81;20239;-60
2021/04/12 00:56:08;;;;;;;;;;;;;;;8.90;45.55;101346.63;1774062;81;20214;-60
2021/04/12 00:59:18;;;;;;;;;;;;;;;8.92;45.63;101342.39;1773957;81;20207;-61
2021/04/12 01:02:56;;;;;;;;;;;;;;;8.96;45.50;101335.63;1774152;81;20215;-59
2021/04/12 01:06:40;;;;;;;;;;;;;;;8.99;45.52;101330.75;1773956;81;20211;-60
2021/04/12 01:10:13;;;;;;;;;;;;;;;9.08;45.57;101326.31;1773935;81;20210;-60
2021/04/12 01:13:48;;;;;;;;;;;;;;;9.13;45.32;101321.28;1769104;81;20234;-60
2021/04/12 01:17:04;;;;;;;;;;;;;;;9.13;45.02;101320.41;1768417;81;20215;-61
2021/04/12 01:20:32;;;;;;;;;;;;;;;9.11;45.02;101313.73;1769381;81;20279;-60
2021/04/12 01:24:08;;;;;;;;;;;;;;;9.12;45.04;101304.52;1769178;81;20308;-61
2021/04/12 01:27:32;;;;;;;;;;;;;;;9.13;45.12;101302.66;1769275;81;20273;-59
2021/04/12 01:31:00;;;;;;;;;;;;;;;9.15;45.52;101303.39;1769123;81;20307;-59
2021/04/12 01:34:39;;;;;;;;;;;;;;;9.18;45.85;101306.66;1769124;81;20344;-59
2021/04/12 01:37:56;;;;;;;;;;;;;;;9.28;46.12;101305.30;1715573;84;20235;-60
2021/04/12 01:41:26;;;;;;;;;;;;;;;9.36;46.26;101302.20;1745569;82;20214;-60
2021/04/12 01:44:35;;;;;;;;;;;;;;;9.38;46.30;101293.36;1769207;81;20583;-59
2021/04/12 01:47:53;;;;;;;;;;;;;;;9.33;46.80;101286.11;1769255;81;20199;-60
2021/04/12 01:51:23;;;;;;;;;;;;;;;9.35;47.18;101294.16;1761236;81;20303;-60
2021/04/12 01:54:58;;;;;;;;;;;;;;;9.36;47.63;101286.30;1769062;81;20315;-59
2021/04/12 01:58:26;;;;;;;;;;;;;;;9.39;47.88;101285.52;1769224;81;20208;-59
2021/04/12 02:02:09;;;;;;;;;;;;;;;9.39;47.78;101288.25;1769148;81;20237;-60
2021/04/12 02:05:43;;;;;;;;;;;;;;;9.41;48.06;101289.47;1769074;81;20272;-59
2021/04/12 02:09:10;;;;;;;;;;;;;;;9.38;48.50;101293.36;1769232;81;20248;-60
2021/04/12 02:12:36;;;;;;;;;;;;;;;9.41;48.96;101286.73;1769285;81;20267;-59
2021/04/12 02:15:51;;;;;;;;;;;;;;;9.35;49.25;101281.86;1773706;81;20214;-59
2021/04/12 02:19:28;;;;;;;;;;;;;;;9.29;49.54;101283.32;1774111;81;20188;-59
2021/04/12 02:23:09;;;;;;;;;;;;;;;9.25;50.44;101277.77;1774041;81;20210;-58
2021/04/12 02:26:22;;;;;;;;;;;;;;;9.26;50.89;101279.48;1774124;81;20203;-59
2021/04/12 02:29:38;;;;;;;;;;;;;;;9.26;51.42;101280.85;1774068;81;20204;-59
2021/04/12 02:33:03;;;;;;;;;;;;;;;9.25;51.76;101284.61;1774044;81;20219;-60
2021/04/12 02:36:17;;;;;;;;;;;;;;;9.21;52.15;101284.55;1774241;81;20553;-59
2021/04/12 02:39:41;;;;;;;;;;;;;;;9.17;52.73;101286.32;1753568;80;20215;-60
2021/04/12 02:43:10;;;;;;;;;;;;;;;9.17;52.91;101268.07;1774173;81;20531;-59
2021/04/12 02:46:49;;;;;;;;;;;;;;;9.23;52.74;101270.74;1774241;81;20214;-58
2021/04/12 02:50:13;;;;;;;;;;;;;;;9.20;52.41;101267.78;1774001;81;20211;-59
2021/04/12 02:53:21;;;;;;;;;;;;;;;9.22;52.72;101268.50;1773578;81;20246;-60
2021/04/12 02:56:41;;;;;;;;;;;;;;;9.20;53.09;101258.22;1774073;81;20242;-58
2021/04/12 03:00:03;;;;;;;;;;;;;;;9.20;52.79;101241.83;1774123;81;20234;-61
2021/04/12 03:03:13;;;;;;;;;;;;;;;9.18;52.98;101247.93;1774101;81;20274;-58
2021/04/12 03:06:40;;;;;;;;;;;;;;;9.10;53.28;101247.83;1774056;81;20343;-57
2021/04/12 03:10:04;;;;;;;;;;;;;;;9.08;53.29;101247.11;1773065;81;20195;-58
2021/04/12 03:13:13;;;;;;;;;;;;;;;9.06;53.97;101249.11;1773977;81;20219;-57
2021/04/12 03:16:50;;;;;;;;;;;;;;;9.13;54.19;101243.44;1715014;83;20318;-58
2021/04/12 03:20:18;;;;;;;;;;;;;;;9.13;53.87;101243.44;1727711;83;20281;-58
2021/04/12 03:23:40;;;;;;;;;;;;;;;9.13;54.02;101250.27;1727763;83;20207;-59
2021/04/12 03:26:54;;;;;;;;;;;;;;;9.16;54.34;101258.16;1727657;83;20210;-59
2021/04/12 03:30:05;;;;;;;;;;;;;;;9.19;54.30;101258.36;1727725;83;20287;-58
2021/04/12 03:33:30;;;;;;;;;;;;;;;9.25;54.77;101252.31;1727578;83;20348;-58
2021/04/12 03:36:41;;;;;;;;;;;;;;;9.27;54.69;101248.44;1727532;83;20566;-59
2021/04/12 03:40:04;;;;;;;;;;;;;;;9.26;54.74;101255.42;1709638;82;20214;-58
2021/04/12 03:43:22;;;;;;;;;;;;;;;9.23;54.78;101249.73;1713015;82;20261;-57
2021/04/12 03:46:33;;;;;;;;;;;;;;;9.23;55.17;101242.89;1727545;83;20206;-58
2021/04/12 03:49:41;;;;;;;;;;;;;;;9.29;55.30;101244.20;1727483;83;20301;-58
2021/04/12 03:53:00;;;;;;;;;;;;;;;9.34;55.55;101248.20;1728348;83;20215;-58
2021/04/12 03:56:38;;;;;;;;;;;;;;;9.39;55.77;101243.16;1727588;83;20606;-57
2021/04/12 04:00:12;;;;;;;;;;;;;;;9.51;55.73;101252.05;1727491;83;20246;-58
2021/04/12 04:03:36;;;;;;;;;;;;;;;9.56;55.84;101264.25;1727741;83;20259;-59
2021/04/12 04:07:00;;;;;;;;;;;;;;;9.61;55.89;101260.58;1727605;83;20210;-60
2021/04/12 04:10:08;;;;;;;;;;;;;;;9.64;55.75;101262.17;1727605;83;20218;-62
2021/04/12 04:13:44;;;;;;;;;;;;;;;9.69;55.85;101256.59;1728011;83;20215;-59
2021/04/12 04:17:09;;;;;;;;;;;;;;;9.69;55.66;101255.75;1763827;80;20211;-58
2021/04/12 04:20:43;;;;;;;;;;;;;;;9.76;55.41;101264.57;1715072;82;20280;-58
2021/04/12 04:23:50;;;;;;;;;;;;;;;9.82;54.39;101257.13;1784968;80;20817;-58
2021/04/12 04:27:28;;;;;;;;;;;;;;;9.87;53.92;101252.08;1784997;80;20286;-59
2021/04/12 04:31:01;;;;;;;;;;;;;;;9.94;53.31;101244.98;1785071;80;20266;-60
2021/04/12 04:34:26;;;;;;;;;;;;;;;10.00;52.91;101235.32;1785097;80;20654;-59
2021/04/12 04:38:04;;;;;;;;;;;;;;;10.05;52.62;101232.47;1785073;80;20282;-59
2021/04/12 04:41:16;;;;;;;;;;;;;;;10.10;52.62;101235.66;1784543;80;20315;-59
2021/04/12 04:44:48;;;;;;;;;;;;;;;10.11;52.54;101229.68;1784971;80;20611;-57
2021/04/12 04:48:13;;;;;;;;;;;;;;;10.12;52.75;101232.27;1784697;80;20310;-58
2021/04/12 04:51:21;;;;;;;;;;;;;;;10.18;52.81;101227.55;1785153;80;20282;-59
2021/04/12 04:54:49;;;;;;;;;;;;;;;10.27;52.76;101221.67;1785105;80;20342;-58
2021/04/12 04:58:09;;;;;;;;;;;;;;;10.34;52.68;101218.16;1764963;80;20537;-59
2021/04/12 05:01:28;;;;;;;;;;;;;;;10.46;52.62;101214.70;1743953;82;20201;-59
2021/04/12 05:04:58;;;;;;;;;;;;;;;10.56;52.42;101223.19;1744905;81;20288;-58
2021/04/12 05:08:30;;;;;;;;;;;;;;;10.66;52.24;101212.16;1749919;81;20247;-56
2021/04/12 05:11:39;;;;;;;;;;;;;;;10.75;51.76;101204.90;1769013;80;20208;-56
2021/04/12 05:14:54;;;;;;;;;;;;;;;10.83;51.86;101211.29;1756747;81;20204;-56
2021/04/12 05:18:17;;;;;;;;;;;;;;;10.90;51.85;101213.77;1742254;81;20590;-56
2021/04/12 05:22:00;;;;;;;;;;;;;;;10.98;52.12;101223.92;1727596;82;20265;-55
2021/04/12 05:25:29;;;;;;;;;;;;;;;11.07;52.10;101221.62;1724452;83;20606;-57
2021/04/12 05:28:48;;;;;;;;;;;;;;;11.14;51.63;101201.64;1725207;82;20573;-56
2021/04/12 05:32:03;;;;;;;;;;;;;;;11.23;50.95;101200.67;1724777;82;20233;-55
2021/04/12 05:35:28;;;;;;;;;;;;;;;11.28;51.80;101205.67;1743142;82;20212;-56
2021/04/12 05:39:07;;;;;;;;;;;;;;;11.34;52.18;101194.06;1726942;83;20632;-55
2021/04/12 05:42:27;;;;;;;;;;;;;;;11.41;52.74;101199.26;1727659;83;20213;-55
2021/04/12 05:45:47;;;;;;;;;;;;;;;11.49;53.04;101211.16;1727277;83;20216;-56
2021/04/12 05:49:23;;;;;;;;;;;;;;;11.54;53.44;101205.17;1736377;82;20275;-56
2021/04/12 05:52:44;;;;;;;;;;;;;;;11.62;53.40;101206.60;1755443;81;20227;-55
2021/04/12 05:56:09;;;;;;;;;;;;;;;11.61;52.95;101211.72;1755865;81;20221;-54
2021/04/12 05:59:53;;;;;;;;;;;;;;;11.59;53.42;101204.19;1745440;82;20215;-55
2021/04/12 06:03:19;;;;;;;;;;;;;;;11.62;53.43;101209.34;1724580;82;20293;-59
2021/04/12 06:06:46;;;;;;;;;;;;;;;11.64;53.65;101202.70;1745132;82;20201;-57
2021/04/12 06:10:32;;;;;;;;;;;;;;;11.68;53.46;101192.27;1752627;80;20212;-55
2021/04/12 06:13:41;;;;;;;;;;;;;;;11.70;53.26;101195.71;1739728;82;20201;-54
2021/04/12 06:16:48;;;;;;;;;;;;;;;11.69;53.32;101189.86;1751363;81;20267;-55
2021/04/12 06:20:08;;;;;;;;;;;;;;;11.73;52.85;101191.27;1721803;83;20583;-56
2021/04/12 06:23:41;;;;;;;;;;;;;;;11.78;53.23;101193.84;1709770;83;20233;-55
2021/04/12 06:27:14;;;;;;;;;;;;;;;11.87;53.14;101203.86;1728799;83;20272;-56
2021/04/12 06:30:39;;;;;;;;;;;;;;;11.94;53.03;101201.29;1717109;83;20261;-56
2021/04/12 06:34:08;;;;;;;;;;;;;;;12.05;53.23;101201.87;1712778;83;20206;-59
2021/04/12 06:37:15;;;;;;;;;;;;;;;12.12;52.52;101203.94;1716197;82;20246;-55
2021/04/12 06:40:26;;;;;;;;;;;;;;;12.12;51.88;101208.06;1709021;83;20563;-57
2021/04/12 06:43:56;;;;;;;;;;;;;;;12.06;52.35;101205.48;1700687;84;20232;-56
2021/04/12 06:47:14;;;;;;;;;;;;;;;12.15;52.79;101203.11;1673900;84;20278;-56
2021/04/12 06:50:53;;;;;;;;;;;;;;;12.26;52.47;101197.31;1678606;83;20232;-54
2021/04/12 06:54:03;;;;;;;;;;;;;;;12.40;52.39;101192.54;1672027;85;20207;-56
2021/04/12 06:57:31;;;;;;;;;;;;;;;12.47;52.09;101190.86;1670368;85;20657;-54
2021/04/12 07:00:43;;;;;;;;;;;;;;;12.52;52.26;101191.21;1681197;85;20261;-55
2021/04/12 07:04:25;;;;;;;;;;;;;;;12.61;52.43;101188.81;1680662;84;20210;-56
2021/04/12 07:08:11;;;;;;;;;;;;;;;12.67;52.72;101184.01;1709148;83;20261;-55
2021/04/12 07:11:55;;;;;;;;;;;;;;;12.72;52.69;101181.62;1709179;84;20280;-56
2021/04/12 07:15:32;;;;;;;;;;;;;;;12.85;52.78;101176.48;1697498;83;20243;-55
2021/04/12 07:19:13;;;;;;;;;;;;;;;13.03;52.85;101173.59;1689128;81;20663;-56
2021/04/12 07:22:31;;;;;;;;;;;;;;;13.23;52.66;101170.31;1714851;83;20215;-56
2021/04/12 07:26:02;;;;;;;;;;;;;;;13.42;51.79;101174.06;1713744;82;20223;-56
2021/04/12 07:29:19;;;;;;;;;;;;;;;13.61;51.92;101176.07;1698552;82;20204;-56
2021/04/12 07:32:32;;;;;;;;;;;;;;;13.83;51.50;101167.92;1714208;82;20194;-59
2021/04/12 07:36:14;;;;;;;;;;;;;;;13.92;50.67;101172.89;1719065;82;20824;-55
2021/04/12 07:39:42;;;;;;;;;;;;;;;13.86;50.55;101168.94;1713836;83;20234;-56
2021/04/12 07:43:21;;;;;;;;;;;;;;;13.82;50.79;101170.86;1722486;82;20225;-54
2021/04/12 07:46:44;;;;;;;;;;;;;;;13.91;51.21;101165.64;1745435;81;20290;-55
2021/04/12 07:50:19;;;;;;;;;;;;;;;13.99;50.97;101160.11;1698133;82;20215;-55
2021/04/12 07:54:01;;;;;;;;;;;;;;;14.01;51.52;101164.92;1717044;83;20217;-56
2021/04/12 07:57:22;;;;;;;;;;;;;;;14.21;51.53;101157.93;1694578;85;20616;-58
2021/04/12 08:01:01;;;;;;;;;;;;;;;14.34;50.91;101156.86;1682138;84;20215;-58
2021/04/12 08:04:38;;;;;;;;;;;;;;;14.36;50.61;101153.42;1685974;84;20280;-58
2021/04/12 08:07:46;;;;;;;;;;;;;;;14.39;51.25;101148.41;1685697;84;20220;-59
2021/04/12 08:11:19;;;;;;;;;;;;;;;14.46;50.58;101141.66;1686134;85;20299;-57
2021/04/12 08:14:50;;;;;;;;;;;;;;;14.49;50.72;101135.78;1697636;84;20216;-58
2021/04/12 08:18:13;;;;;;;;;;;;;;;14.64;50.79;101131.17;1697769;84;20216;-59
2021/04/12 08:21:42;;;;;;;;;;;;;;;14.74;50.29;101129.03;1729817;82;20608;-56
2021/04/12 08:25:08;;;;;;;;;;;;;;;14.77;50.37;101114.88;1742946;81;20331;-56
2021/04/12 08:28:34;;;;;;;;;;;;;;;14.82;50.57;101117.44;1759759;80;20586;-55
2021/04/12 08:32:06;;;;;;;;;;;;;;;14.92;50.49;101127.66;1770128;80;20218;-57
2021/04/12 08:35:27;;;;;;;;;;;;;;;15.11;50.61;101118.00;1765959;80;20222;-54
2021/04/12 08:39:00;;;;;;;;;;;;;;;15.27;50.09;101120.60;1754457;80;20276;-55
2021/04/12 08:42:12;;;;;;;;;;;;;;;15.42;50.05;101110.48;1758292;80;20335;-56
2021/04/12 08:45:53;;;;;;;;;;;;;;;15.57;49.76;101109.12;1758937;81;20528;-59
2021/04/12 08:49:32;;;;;;;;;;;;;;;15.73;50.19;101103.41;1758152;81;20491;-57
2021/04/12 08:53:12;;;;;;;;;;;;;;;15.85;49.14;101092.19;1768269;81;20278;-57
2021/04/12 08:56:20;;;;;;;;;;;;;;;15.90;49.30;101091.09;1775281;81;20243;-59
2021/04/12 08:59:28;;;;;;;;;;;;;;;15.93;48.90;101082.42;1775360;81;20203;-56
2021/04/12 09:02:48;;;;;;;;;;;;;;;16.01;49.18;101077.66;1773769;81;20242;-56
2021/04/12 09:06:11;;;;;;;;;;;;;;;16.13;48.80;101073.32;1750507;81;20266;-55
2021/04/12 09:09:27;;;;;;;;;;;;;;;16.35;48.92;101076.95;1743487;81;20215;-55
2021/04/12 09:12:39;;;;;;;;;;;;;;;16.52;48.80;101070.69;1733389;81;20565;-56
2021/04/12 09:16:15;;;;;;;;;;;;;;;16.57;48.28;101076.48;1735758;81;20240;-56
2021/04/12 09:19:25;;;;;;;;;;;;;;;16.62;48.09;101077.59;1734688;81;20220;-56
2021/04/12 09:23:02;;;;;;;;;;;;;;;16.70;48.18;101072.47;1740658;81;20225;-56
2021/04/12 09:26:21;;;;;;;;;;;;;;;16.76;47.63;101072.50;1703134;82;20225;-55
2021/04/12 09:29:51;;;;;;;;;;;;;;;16.78;47.39;101077.31;1748811;81;20207;-56
2021/04/12 09:33:14;;;;;;;;;;;;;;;16.90;47.29;101079.02;1749427;81;20283;-56
2021/04/12 09:36:40;;;;;;;;;;;;;;;17.03;46.90;101080.52;1714395;84;20227;-56
2021/04/12 09:40:06;;;;;;;;;;;;;;;17.11;46.50;101083.14;1714808;83;20188;-58
2021/04/12 09:43:30;;;;;;;;;;;;;;;17.10;46.41;101078.64;1708056;84;20367;-56
2021/04/12 09:46:44;;;;;;;;;;;;;;;17.10;46.26;101075.88;1719951;83;20526;-55
2021/04/12 09:50:24;;;;;;;;;;;;;;;17.04;46.13;101078.94;1721501;81;20251;-56
2021/04/12 09:53:44;;;;;;;;;;;;;;;17.01;46.08;101080.72;1715070;84;20287;-56
2021/04/12 09:57:24;;;;;;;;;;;;;;;17.03;46.26;101077.76;1714773;84;20311;-56
2021/04/12 10:00:54;;;;;;;;;;;;;;;17.05;46.33;101082.02;1714512;84;20603;-57
2021/04/12 10:04:02;;;;;;;;;;;;;;;17.11;46.18;101081.20;1714538;84;20260;-56
2021/04/12 10:07:40;;;;;;;;;;;;;;;17.14;46.08;101085.50;1767732;81;20211;-59
2021/04/12 10:10:58;;;;;;;;;;;;;;;17.04;46.46;101091.39;1767800;81;20250;-57
2021/04/12 10:14:20;;;;;;;;;;;;;;;16.94;46.86;101087.23;1766913;81;20272;-58
2021/04/12 10:17:31;;;;;;;;;;;;;;;16.80;46.99;101094.58;1766725;81;20207;-58
2021/04/12 10:20:42;;;;;;;;;;;;;;;16.64;47.22;101087.92;1766598;79;20211;-58
2021/04/12 10:23:46;;;;;;;;;;;;;;;16.54;47.37;101092.09;1736934;81;20221;-57
2021/04/12 10:27:08;;;;;;;;;;;;;;;16.45;47.42;101091.34;1737614;82;20206;-58
2021/04/12 10:30:21;;;;;;;;;;;;;;;16.36;47.59;101090.57;1723883;82;20554;-58
2021/04/12 10:33:31;;;;;;;;;;;;;;;16.32;47.83;101089.78;1733149;82;20245;-58
2021/04/12 10:37:00;;;;;;;;;;;;;;;16.23;48.03;101090.45;1736606;82;20221;-57
2021/04/12 10:40:08;;;;;;;;;;;;;;;16.14;48.17;101093.52;1707548;83;20238;-60
2021/04/12 10:43:34;;;;;;;;;;;;;;;16.05;48.46;101096.91;1752632;82;20300;-57
2021/04/12 10:46:58;;;;;;;;;;;;;;;16.02;48.78;101100.06;1742228;81;20554;-57
2021/04/12 10:50:32;;;;;;;;;;;;;;;15.97;48.79;101095.64;1737116;82;20273;-57
2021/04/12 10:53:48;;;;;;;;;;;;;;;15.96;48.85;101096.70;1732341;82;20513;-59
2021/04/12 10:57:00;;;;;;;;;;;;;;;15.99;48.87;101098.20;1739107;81;20213;-59
2021/04/12 11:00:10;;;;;;;;;;;;;;;16.04;49.05;101096.59;1730176;81;20217;-59
2021/04/12 11:03:49;;;;;;;;;;;;;;;16.15;49.05;101090.56;1731404;82;20210;-58
2021/04/12 11:07:05;;;;;;;;;;;;;;;16.28;49.02;101093.45;1727892;82;20528;-58
2021/04/12 11:10:25;;;;;;;;;;;;;;;16.39;48.72;101101.23;1732948;82;20214;-59
2021/04/12 11:14:05;;;;;;;;;;;;;;;16.42;48.66;101099.48;1711644;82;20483;-60
2021/04/12 11:17:23;;;;;;;;;;;;;;;16.41;48.55;101103.83;1724627;82;20214;-58
2021/04/12 11:20:32;;;;;;;;;;;;;;;16.34;48.61;101113.42;1728620;82;20312;-59
2021/04/12 11:23:39;;;;;;;;;;;;;;;16.32;48.77;101111.37;1757929;77;20509;-59
2021/04/12 11:26:59;;;;;;;;;;;;;;;16.28;48.87;101103.67;1754781;81;20386;-59
2021/04/12 11:30:39;;;;;;;;;;;;;;;16.27;48.96;101104.19;1753913;81;20383;-58
2021/04/12 11:34:03;;;;;;;;;;;;;;;16.24;49.00;101113.39;1691809;82;20203;-59
2021/04/12 11:37:11;;;;;;;;;;;;;;;16.18;49.21;101104.50;1759389;81;20211;-59
2021/04/12 11:40:22;;;;;;;;;;;;;;;16.09;49.35;101103.75;1764599;81;20634;-59
2021/04/12 11:43:37;;;;;;;;;;;;;;;16.05;49.74;101102.44;1754289;81;20572;-58
2021/04/12 11:46:47;;;;;;;;;;;;;;;16.07;49.80;101099.48;1773188;81;20207;-59
2021/04/12 11:50:20;;;;;;;;;;;;;;;16.10;49.88;101099.95;1763319;80;20203;-58
2021/04/12 11:53:41;;;;;;;;;;;;;;;16.15;49.72;101103.52;1768840;81;20216;-59
2021/04/12 11:56:53;;;;;;;;;;;;;;;16.14;49.77;101098.50;1762985;81;20545;-58
2021/04/12 12:00:14;;;;;;;;;;;;;;;16.12;49.74;101096.48;1769285;81;20211;-59
2021/04/12 12:03:46;;;;;;;;;;;;;;;16.13;49.85;101104.22;1764512;79;20257;-58
2021/04/12 12:07:01;;;;;;;;;;;;;;;16.11;49.62;101105.80;1763801;81;20509;-59
2021/04/12 12:10:27;;;;;;;;;;;;;;;16.10;49.65;101107.38;1695776;83;20886;-60
2021/04/12 12:13:46;;;;;;;;;;;;;;;16.04;49.93;101099.36;1770730;79;20559;-60
2021/04/12 12:16:49;;;;;;;;;;;;;;;16.02;49.98;101101.96;1699585;83;20605;-58
2021/04/12 12:19:58;;;;;;;;;;;;;;;15.93;50.16;101098.47;1684340;85;20558;-58
2021/04/12 12:23:18;;;;;;;;;;;;;;;15.86;50.41;101096.66;1737013;82;20239;-58
2021/04/12 12:26:50;;;;;;;;;;;;;;;15.82;50.95;101100.34;1745062;81;20218;-59
2021/04/12 12:30:03;;;;;;;;;;;;;;;15.78;51.07;101105.03;1744305;82;20252;-58
2021/04/12 12:33:27;;;;;;;;;;;;;;;15.77;51.38;101103.34;1718120;83;20219;-59
2021/04/12 12:36:35;;;;;;;;;;;;;;;15.79;51.34;101104.01;1768512;81;20216;-59
2021/04/12 12:39:58;;;;;;;;;;;;;;;15.74;51.64;101112.88;1764089;79;20199;-58
2021/04/12 12:43:11;;;;;;;;;;;;;;;15.62;52.07;101106.10;1754924;81;20233;-58
2021/04/12 12:46:24;;;;;;;;;;;;;;;15.57;52.48;101107.19;1762987;81;20239;-60
2021/04/12 12:49:35;;;;;;;;;;;;;;;15.57;52.94;101114.09;1758751;81;20216;-59
2021/04/12 12:52:47;;;;;;;;;;;;;;;15.49;53.26;101114.18;1741000;81;20559;-59
2021/04/12 12:55:58;;;;;;;;;;;;;;;15.43;54.05;101112.19;1770631;81;20219;-58
2021/04/12 12:59:17;;;;;;;;;;;;;;;15.42;54.36;101105.48;1768718;81;20239;-58
2021/04/12 13:02:36;;;;;;;;;;;;;;;15.46;54.67;101108.21;1766958;81;20203;-58
2021/04/12 13:05:44;;;;;;;;;;;;;;;15.51;54.86;101113.48;1743003;81;20213;-57
2021/04/12 13:09:01;;;;;;;;;;;;;;;15.57;54.95;101103.59;1727549;81;20261;-59
2021/04/12 13:12:09;;;;;;;;;;;;;;;15.64;55.15;101110.91;1729013;82;20616;-59
2021/04/12 13:15:37;;;;;;;;;;;;;;;15.66;55.36;101112.97;1732848;81;20289;-60
2021/04/12 13:18:41;;;;;;;;;;;;;;;15.60;55.76;101110.11;1770377;81;20223;-58
2021/04/12 13:21:52;;;;;;;;;;;;;;;15.46;56.33;101111.80;1773282;81;20211;-58
2021/04/12 13:24:55;;;;;;;;;;;;;;;15.36;56.77;101115.35;1736870;82;20494;-58
2021/04/12 13:28:09;;;;;;;;;;;;;;;15.32;56.98;101112.63;1735933;82;20485;-58
2021/04/12 13:31:17;;;;;;;;;;;;;;;15.30;57.19;101121.59;1734993;82;20204;-58
2021/04/12 13:34:26;;;;;;;;;;;;;;;15.28;57.40;101115.44;1735284;81;20251;-58
2021/04/12 13:37:35;;;;;;;;;;;;;;;15.31;57.69;101110.05;1737375;82;20299;-59
2021/04/12 13:40:52;;;;;;;;;;;;;;;15.28;57.92;101117.33;1737897;81;20204;-62
2021/04/12 13:44:02;;;;;;;;;;;;;;;15.17;58.29;101113.66;1735153;81;20201;-59
2021/04/12 13:47:11;;;;;;;;;;;;;;;15.11;58.72;101113.03;1737713;82;20212;-58
2021/04/12 13:50:26;;;;;;;;;;;;;;;15.03;58.98;101108.97;1738080;81;20201;-59
2021/04/12 13:53:53;;;;;;;;;;;;;;;14.96;59.32;101109.72;1731033;82;20259;-58
2021/04/12 13:57:07;;;;;;;;;;;;;;;14.94;59.73;101110.93;1727440;82;20208;-58
2021/04/12 14:00:14;;;;;;;;;;;;;;;14.92;59.98;101111.66;1732602;82;20204;-59
2021/04/12 14:03:35;;;;;;;;;;;;;;;14.93;60.00;101113.37;1736760;82;20204;-59
2021/04/12 14:06:46;;;;;;;;;;;;;;;14.90;60.03;101109.06;1708532;83;20222;-60
2021/04/12 14:10:04;;;;;;;;;;;;;;;15.00;60.36;101108.29;1726716;82;20235;-59
2021/04/12 14:13:12;;;;;;;;;;;;;;;15.05;60.18;101111.86;1731874;82;20231;-59
2021/04/12 14:16:32;;;;;;;;;;;;;;;15.12;60.07;101116.98;1736367;82;20205;-59
2021/04/12 14:19:47;;;;;;;;;;;;;;;15.19;59.90;101119.30;1707922;83;20713;-57
2021/04/12 14:22:54;;;;;;;;;;;;;;;15.21;59.87;101119.98;1708162;83;20202;-58
2021/04/12 14:26:19;;;;;;;;;;;;;;;15.25;59.71;101118.58;1727082;81;20285;-59
2021/04/12 14:29:37;;;;;;;;;;;;;;;15.26;59.69;101114.77;1744869;81;20213;-59
2021/04/12 14:32:51;;;;;;;;;;;;;;;15.28;59.59;101116.81;1743734;81;20216;-59
2021/04/12 14:35:56;;;;;;;;;;;;;;;15.32;59.72;101117.30;1743467;81;20212;-59
2021/04/12 14:39:15;;;;;;;;;;;;;;;15.38;59.62;101122.93;1773496;81;20231;-59
2021/04/12 14:42:22;;;;;;;;;;;;;;;15.37;59.38;101118.44;1773788;81;20250;-59
2021/04/12 14:45:33;;;;;;;;;;;;;;;15.41;59.24;101117.06;1773884;81;20192;-60
2021/04/12 14:49:13;;;;;;;;;;;;;;;15.49;59.20;101110.04;1773134;81;20208;-62
2021/04/12 14:52:37;;;;;;;;;;;;;;;15.64;58.99;101116.44;1759928;80;20618;-63
2021/04/12 14:55:42;;;;;;;;;;;;;;;15.80;58.73;101125.03;1773935;81;20305;-63
2021/04/12 14:58:49;;;;;;;;;;;;;;;15.95;58.13;101128.11;1759192;81;20210;-62
2021/04/12 15:01:55;;;;;;;;;;;;;;;16.08;57.79;101119.14;1773752;81;20571;-62
2021/04/12 15:05:11;;;;;;;;;;;;;;;16.16;57.45;101125.94;1773892;81;20524;-62
2021/04/12 15:08:22;;;;;;;;;;;;;;;16.12;57.22;101130.14;1774111;81;20484;-62
2021/04/12 15:11:51;;;;;;;;;;;;;;;16.04;57.33;101143.55;1774188;81;20561;-62
2021/04/12 15:15:11;;;;;;;;;;;;;;;15.90;57.40;101138.87;1774248;81;20211;-63
2021/04/12 15:18:24;;;;;;;;;;;;;;;15.75;57.65;101135.28;1774118;81;20207;-62
2021/04/12 15:21:35;;;;;;;;;;;;;;;15.61;57.86;101141.66;1774175;81;20250;-63
2021/04/12 15:24:44;;;;;;;;;;;;;;;15.50;58.01;101150.92;1774018;81;20254;-63
2021/04/12 15:27:49;;;;;;;;;;;;;;;15.40;58.17;101152.58;1760214;78;20665;-62
2021/04/12 15:31:35;;;;;;;;;;;;;;;15.36;58.23;101151.22;1728297;82;20250;-63
2021/04/12 15:34:19;;;;;;;;;;;;;;;15.32;58.47;101148.48;1744120;81;20248;-63
2021/04/12 15:37:32;;;;;;;;;;;;;;;15.25;58.53;101146.16;1719288;83;20713;-64
2021/04/12 15:40:42;;;;;;;;;;;;;;;15.15;58.55;101144.19;1744951;81;20552;-62
2021/04/12 15:43:48;;;;;;;;;;;;;;;15.10;58.77;101149.91;1742744;81;20201;-62
2021/04/12 15:46:57;;;;;;;;;;;;;;;15.03;58.84;101157.55;1719546;83;20572;-62
2021/04/12 15:50:35;;;;;;;;;;;;;;;14.97;58.92;101156.05;1744957;81;20631;-62
2021/04/12 15:53:39;;;;;;;;;;;;;;;14.88;59.16;101154.42;1744731;81;20236;-62
2021/04/12 15:56:48;;;;;;;;;;;;;;;14.83;59.31;101161.00;1745000;82;20249;-62
2021/04/12 16:00:14;;;;;;;;;;;;;;;14.74;59.26;101156.09;1745047;81;20201;-62
2021/04/12 16:03:20;;;;;;;;;;;;;;;14.69;59.43;101162.67;1744823;82;20225;-62
2021/04/12 16:06:27;;;;;;;;;;;;;;;14.63;59.39;101166.16;1744696;82;20207;-61
2021/04/12 16:09:34;;;;;;;;;;;;;;;14.55;59.55;101166.73;1744706;81;20234;-63
2021/04/12 16:12:37;;;;;;;;;;;;;;;14.47;59.75;101170.91;1744320;82;20235;-62
2021/04/12 16:15:45;;;;;;;;;;;;;;;14.40;59.85;101169.91;1744425;81;20212;-61
2021/04/12 16:18:57;;;;;;;;;;;;;;;14.34;60.03;101172.02;1744770;81;20216;-62
2021/04/12 16:22:37;;;;;;;;;;;;;;;14.30;60.14;101177.56;1745087;82;20211;-62
2021/04/12 16:25:47;;;;;;;;;;;;;;;14.27;60.10;101177.92;1744958;81;20211;-62
2021/04/12 16:29:15;;;;;;;;;;;;;;;14.22;60.16;101172.90;1739669;80;20318;-63
2021/04/12 16:32:32;;;;;;;;;;;;;;;14.17;60.37;101173.12;1740480;82;20563;-63
2021/04/12 16:36:09;;;;;;;;;;;;;;;14.10;60.53;101171.59;1740101;81;20212;-62
2021/04/12 16:39:16;;;;;;;;;;;;;;;14.06;60.67;101180.39;1745837;81;20212;-61
2021/04/12 16:42:28;;;;;;;;;;;;;;;14.03;60.84;101180.25;1760335;80;20247;-63
2021/04/12 16:45:35;;;;;;;;;;;;;;;14.00;61.03;101180.58;1769892;80;20531;-62
2021/04/12 16:48:47;;;;;;;;;;;;;;;14.00;61.20;101187.46;1770213;80;20247;-62
2021/04/12 16:52:09;;;;;;;;;;;;;;;13.99;61.11;101191.77;1769901;81;20329;-63
2021/04/12 16:55:24;;;;;;;;;;;;;;;13.98;61.20;101194.19;1741755;81;20248;-63
2021/04/12 16:58:38;;;;;;;;;;;;;;;13.94;61.28;101199.19;1738220;82;20224;-62
2021/04/12 17:01:56;;;;;;;;;;;;;;;13.90;61.46;101197.84;1738326;82;20204;-62
2021/04/12 17:05:07;;;;;;;;;;;;;;;13.88;61.51;101203.16;1718810;82;20557;-62
2021/04/12 17:08:11;;;;;;;;;;;;;;;13.84;61.69;101204.06;1715491;83;20568;-63
2021/04/12 17:11:21;;;;;;;;;;;;;;;13.82;61.83;101203.37;1770360;81;20244;-62
2021/04/12 17:14:44;;;;;;;;;;;;;;;13.79;61.84;101211.98;1770423;81;20263;-62
2021/04/12 17:17:52;;;;;;;;;;;;;;;13.76;61.93;101210.97;1754573;81;20256;-62